createdAt,value
2017-01-29T00:00:58.900Z,99.99
2017-01-29T00:01:13.725Z,99.99
2017-01-29T00:01:59.245Z,99.99
2017-01-29T00:02:13.896Z,99.99
2017-01-29T00:02:59.491Z,99.99
2017-01-29T00:03:14.325Z,99.99
2017-01-29T00:03:29.528Z,99.99
2017-01-29T00:04:15.197Z,99.99
2017-01-29T00:04:30.151Z,99.99
2017-01-29T00:04:44.857Z,99.99
2017-01-29T00:05:31.037Z,99.99
2017-01-29T00:05:45.973Z,99.99
2017-01-29T00:06:31.940Z,99.99
2017-01-29T00:09:57.214Z,99.99
2017-01-29T00:10:42.763Z,99.99
2017-01-29T00:11:59.401Z,99.99
2017-01-29T00:12:14.025Z,99.99
2017-01-29T00:12:28.703Z,99.99
2017-01-29T00:13:14.407Z,99.99
2017-01-29T00:14:31.116Z,99.99
2017-01-29T00:15:16.616Z,99.99
2017-01-29T00:16:02.355Z,99.99
2017-01-29T00:17:02.878Z,99.99
2017-01-29T00:17:48.516Z,99.99
2017-01-29T00:18:34.240Z,99.99
2017-01-29T00:18:48.743Z,99.99
2017-01-29T00:19:03.608Z,99.99
2017-01-29T00:19:49.322Z,99.99
2017-01-29T00:20:34.990Z,99.99
2017-01-29T00:20:49.789Z,99.99
2017-01-29T00:21:35.388Z,99.99
2017-01-29T00:22:21.281Z,99.99
2017-01-29T00:23:37.760Z,99.99
2017-01-29T00:25:09.035Z,99.99
2017-01-29T00:26:25.957Z,99.99
2017-01-29T00:27:31.233Z,99.99
2017-01-29T00:27:45.864Z,99.99
2017-01-29T00:28:00.529Z,99.99
2017-01-29T00:28:47.282Z,99.99
2017-01-29T00:29:36.053Z,99.99
2017-01-29T00:30:21.785Z,99.99
2017-01-29T00:31:38.423Z,99.99
2017-01-29T00:32:24.091Z,99.99
2017-01-29T00:32:38.832Z,99.99
2017-01-29T00:33:29.960Z,99.99
2017-01-29T00:35:17.377Z,99.99
2017-01-29T00:36:33.976Z,99.99
2017-01-29T00:36:48.825Z,99.99
2017-01-29T00:39:53.264Z,99.99
2017-01-29T00:40:08.168Z,99.99
2017-01-29T00:40:53.859Z,99.99
2017-01-29T00:41:09.451Z,99.99
2017-01-29T00:43:57.293Z,99.99
2017-01-29T00:45:20.505Z,99.99
2017-01-29T00:46:20.897Z,99.99
2017-01-29T00:46:35.668Z,99.99
2017-01-29T00:48:26.540Z,99.99
2017-01-29T00:49:12.365Z,99.99
2017-01-29T00:49:57.968Z,99.99
2017-01-29T00:50:12.747Z,99.99
2017-01-29T00:50:58.456Z,99.99
2017-01-29T00:51:44.081Z,99.99
2017-01-29T00:52:29.834Z,99.99
2017-01-29T00:52:44.847Z,99.99
2017-01-29T00:52:59.431Z,99.99
2017-01-29T00:53:14.266Z,99.99
2017-01-29T00:53:29.298Z,99.99
2017-01-29T00:54:14.863Z,99.99
2017-01-29T00:56:18.425Z,99.99
2017-01-29T00:57:04.053Z,99.99
2017-01-29T00:58:20.423Z,99.99
2017-01-29T00:59:06.897Z,99.99
2017-01-29T00:59:21.679Z,99.99
2017-01-29T00:59:36.708Z,99.99
2017-01-29T01:01:09.160Z,99.99
2017-01-29T01:01:24.880Z,99.99
2017-01-29T01:02:10.579Z,99.99
2017-01-29T01:02:25.316Z,99.99
2017-01-29T01:03:41.852Z,99.99
2017-01-29T01:05:05.090Z,99.99
2017-01-29T01:05:19.988Z,99.99
2017-01-29T01:05:35.994Z,99.99
2017-01-29T01:06:54.679Z,99.99
2017-01-29T01:07:09.855Z,99.99
2017-01-29T01:07:55.456Z,99.99
2017-01-29T01:09:01.156Z,99.99
2017-01-29T01:09:47.167Z,99.99
2017-01-29T01:11:49.397Z,99.99
2017-01-29T01:12:04.172Z,99.99
2017-01-29T01:13:20.652Z,99.99
2017-01-29T01:13:35.748Z,99.99
2017-01-29T01:14:21.256Z,99.99
2017-01-29T01:15:07.134Z,99.99
2017-01-29T01:15:52.743Z,99.99
2017-01-29T01:16:07.657Z,99.99
2017-01-29T01:16:22.291Z,99.99
2017-01-29T01:16:37.128Z,99.99
2017-01-29T01:17:22.742Z,99.99
2017-01-29T01:17:37.568Z,99.99
2017-01-29T01:18:23.149Z,99.99
2017-01-29T01:19:08.738Z,99.99
2017-01-29T01:19:55.403Z,99.99
2017-01-29T01:20:56.365Z,99.99
2017-01-29T01:21:42.030Z,99.99
2017-01-29T01:21:56.844Z,99.99
2017-01-29T01:22:11.681Z,99.99
2017-01-29T01:22:26.659Z,99.99
2017-01-29T01:22:42.040Z,99.99
2017-01-29T01:24:18.284Z,99.99
2017-01-29T01:26:12.492Z,99.99
2017-01-29T01:27:17.618Z,99.99
2017-01-29T01:27:32.894Z,99.99
2017-01-29T01:28:18.566Z,99.99
2017-01-29T01:29:04.492Z,99.99
2017-01-29T01:29:50.190Z,99.99
2017-01-29T01:31:06.819Z,99.99
2017-01-29T01:31:21.684Z,99.99
2017-01-29T01:31:36.444Z,99.99
2017-01-29T01:32:53.052Z,99.99
2017-01-29T01:33:38.666Z,99.99
2017-01-29T01:34:12.562Z,99.99
2017-01-29T01:34:59.004Z,99.99
2017-01-29T01:36:15.625Z,99.99
2017-01-29T01:36:31.719Z,99.99
2017-01-29T01:37:17.317Z,99.99
2017-01-29T01:38:02.778Z,99.99
2017-01-29T01:38:17.413Z,99.99
2017-01-29T01:39:03.240Z,99.99
2017-01-29T01:41:39.482Z,99.99
2017-01-29T01:42:58.244Z,99.99
2017-01-29T01:44:00.233Z,99.99
2017-01-29T01:46:41.233Z,99.99
2017-01-29T01:46:57.639Z,99.99
2017-01-29T01:48:28.957Z,99.99
2017-01-29T01:48:43.668Z,99.99
2017-01-29T01:49:29.365Z,99.99
2017-01-29T01:50:14.976Z,99.99
2017-01-29T01:50:29.861Z,99.99
2017-01-29T01:51:15.577Z,99.99
2017-01-29T01:51:30.419Z,99.99
2017-01-29T01:52:47.025Z,99.99
2017-01-29T01:53:01.973Z,99.99
2017-01-29T01:54:18.793Z,99.99
2017-01-29T01:54:33.726Z,99.99
2017-01-29T01:55:19.450Z,99.99
2017-01-29T01:55:34.088Z,99.99
2017-01-29T01:56:21.035Z,99.99
2017-01-29T01:57:06.586Z,99.99
2017-01-29T01:57:21.854Z,99.99
2017-01-29T01:58:07.548Z,99.99
2017-01-29T01:58:53.088Z,99.99
2017-01-29T01:59:10.398Z,99.99
2017-01-29T01:59:55.819Z,99.99
2017-01-29T02:00:10.638Z,99.99
2017-01-29T02:00:25.609Z,99.99
2017-01-29T02:01:42.053Z,99.99
2017-01-29T02:03:58.978Z,99.99
2017-01-29T02:04:13.668Z,99.99
2017-01-29T02:04:58.621Z,99.99
2017-01-29T02:07:32.114Z,99.99
2017-01-29T02:07:47.019Z,99.99
2017-01-29T02:08:32.602Z,99.99
2017-01-29T02:09:18.189Z,99.99
2017-01-29T02:09:32.941Z,99.99
2017-01-29T02:09:47.669Z,99.99
2017-01-29T02:10:03.900Z,99.99
2017-01-29T02:10:18.679Z,99.99
2017-01-29T02:10:55.276Z,99.99
2017-01-29T02:11:46.458Z,99.99
2017-01-29T02:12:01.255Z,99.99
2017-01-29T02:12:34.008Z,99.99
2017-01-29T02:13:19.563Z,99.99
2017-01-29T02:13:34.320Z,99.99
2017-01-29T02:14:34.741Z,99.99
2017-01-29T02:15:08.827Z,99.99
2017-01-29T02:15:54.007Z,99.99
2017-01-29T02:16:16.708Z,99.99
2017-01-29T02:16:31.521Z,99.99
2017-01-29T02:17:17.862Z,99.99
2017-01-29T02:17:32.633Z,99.99
2017-01-29T02:17:57.793Z,99.99
2017-01-29T02:18:12.464Z,99.99
2017-01-29T02:18:58.141Z,99.99
2017-01-29T02:19:43.936Z,99.99
2017-01-29T02:20:01.806Z,99.99
2017-01-29T02:20:16.457Z,99.99
2017-01-29T02:20:32.064Z,99.99
2017-01-29T02:21:24.240Z,99.99
2017-01-29T02:21:38.942Z,99.99
2017-01-29T02:21:53.857Z,99.99
2017-01-29T02:22:46.191Z,99.99
2017-01-29T02:23:31.821Z,99.99
2017-01-29T02:23:46.662Z,99.99
2017-01-29T02:24:14.812Z,99.99
2017-01-29T02:24:32.678Z,99.99
2017-01-29T02:24:48.642Z,99.99
2017-01-29T02:25:03.425Z,99.99
2017-01-29T02:25:18.222Z,99.99
2017-01-29T02:26:01.998Z,99.99
2017-01-29T02:26:16.864Z,99.99
2017-01-29T02:26:31.604Z,99.99
2017-01-29T02:26:46.388Z,99.99
2017-01-29T02:27:00.959Z,99.99
2017-01-29T02:27:42.114Z,99.99
2017-01-29T02:27:57.161Z,99.99
2017-01-29T02:28:12.131Z,99.99
2017-01-29T02:28:28.271Z,99.99
2017-01-29T02:28:42.933Z,99.99
2017-01-29T02:28:58.566Z,99.99
2017-01-29T02:29:41.503Z,99.99
2017-01-29T02:29:56.216Z,99.99
2017-01-29T02:30:11.130Z,99.99
2017-01-29T02:30:25.908Z,99.99
2017-01-29T02:30:40.687Z,99.99
2017-01-29T02:30:55.491Z,99.99
2017-01-29T02:31:11.078Z,99.99
2017-01-29T02:31:25.850Z,99.99
2017-01-29T02:31:40.511Z,99.99
2017-01-29T02:31:57.208Z,99.99
2017-01-29T02:32:31.910Z,99.99
2017-01-29T02:32:47.494Z,99.99
2017-01-29T02:33:27.952Z,99.99
2017-01-29T02:34:02.939Z,99.99
2017-01-29T02:34:44.498Z,99.99
2017-01-29T02:34:59.353Z,99.99
2017-01-29T02:35:14.143Z,99.99
2017-01-29T02:35:28.857Z,99.99
2017-01-29T02:35:43.501Z,99.99
2017-01-29T02:35:58.250Z,99.99
2017-01-29T02:36:13.022Z,99.99
2017-01-29T02:36:27.841Z,99.99
2017-01-29T02:36:48.020Z,99.99
2017-01-29T02:37:33.754Z,99.99
2017-01-29T02:37:48.586Z,99.99
2017-01-29T02:38:04.679Z,99.99
2017-01-29T02:38:22.921Z,99.99
2017-01-29T02:39:04.410Z,99.99
2017-01-29T02:39:19.147Z,99.99
2017-01-29T02:39:33.701Z,99.99
2017-01-29T02:39:55.461Z,99.99
2017-01-29T02:41:42.750Z,99.99
2017-01-29T02:42:23.173Z,99.99
2017-01-29T02:43:36.290Z,99.99
2017-01-29T02:43:50.925Z,99.99
2017-01-29T02:44:36.506Z,99.99
2017-01-29T02:45:35.061Z,99.99
2017-01-29T02:46:31.129Z,99.99
2017-01-29T02:46:45.860Z,99.99
2017-01-29T02:47:51.755Z,99.99
2017-01-29T02:48:06.596Z,99.99
2017-01-29T02:48:52.270Z,99.99
2017-01-29T02:49:31.092Z,99.99
2017-01-29T02:49:45.727Z,99.99
2017-01-29T02:50:00.467Z,99.99
2017-01-29T02:50:15.158Z,99.99
2017-01-29T02:51:01.086Z,99.99
2017-01-29T02:51:17.770Z,99.99
2017-01-29T03:06:34.170Z,99.99
2017-01-29T03:06:48.910Z,99.99
2017-01-29T03:07:03.543Z,99.99
2017-01-29T03:07:18.220Z,99.99
2017-01-29T03:07:32.918Z,99.99
2017-01-29T03:07:47.673Z,99.99
2017-01-29T03:08:02.532Z,99.99
2017-01-29T03:08:17.290Z,99.99
2017-01-29T03:08:33.288Z,99.99
2017-01-29T03:08:48.306Z,99.99
2017-01-29T03:09:03.090Z,99.99
2017-01-29T03:09:17.866Z,99.99
2017-01-29T03:09:32.553Z,99.99
2017-01-29T03:09:47.261Z,99.99
2017-01-29T03:10:02.081Z,99.99
2017-01-29T03:10:16.848Z,99.99
2017-01-29T03:10:31.507Z,99.99
2017-01-29T03:10:46.347Z,99.99
2017-01-29T03:11:01.173Z,99.99
2017-01-29T03:11:15.832Z,99.99
2017-01-29T03:11:30.661Z,99.99
2017-01-29T03:11:45.479Z,99.99
2017-01-29T03:12:00.273Z,99.99
2017-01-29T03:12:15.035Z,99.99
2017-01-29T03:12:29.684Z,99.99
2017-01-29T03:12:44.265Z,99.99
2017-01-29T03:12:58.943Z,99.99
2017-01-29T03:13:13.664Z,99.99
2017-01-29T03:13:28.387Z,99.99
2017-01-29T03:13:43.182Z,99.99
2017-01-29T03:13:57.871Z,99.99
2017-01-29T03:14:12.457Z,99.99
2017-01-29T03:14:27.169Z,99.99
2017-01-29T03:14:41.889Z,99.99
2017-01-29T03:14:56.666Z,99.99
2017-01-29T03:15:11.567Z,99.99
2017-01-29T03:15:26.261Z,99.99
2017-01-29T03:15:40.797Z,99.99
2017-01-29T03:15:55.534Z,99.99
2017-01-29T03:16:10.185Z,99.99
2017-01-29T03:16:24.966Z,99.99
2017-01-29T03:16:39.894Z,99.99
2017-01-29T03:16:54.790Z,99.99
2017-01-29T03:17:09.468Z,99.99
2017-01-29T03:17:24.119Z,99.99
2017-01-29T03:17:38.904Z,99.99
2017-01-29T03:17:53.624Z,99.99
2017-01-29T03:18:08.340Z,99.99
2017-01-29T03:18:22.879Z,99.99
2017-01-29T03:18:37.640Z,99.99
2017-01-29T03:18:52.223Z,99.99
2017-01-29T03:19:06.841Z,99.99
2017-01-29T03:19:21.621Z,99.99
2017-01-29T03:19:36.445Z,99.99
2017-01-29T03:19:51.117Z,99.99
2017-01-29T03:20:06.071Z,99.99
2017-01-29T03:20:21.145Z,99.99
2017-01-29T03:20:35.904Z,99.99
2017-01-29T03:20:50.681Z,99.99
2017-01-29T03:21:05.489Z,99.99
2017-01-29T03:21:20.226Z,99.99
2017-01-29T03:21:35.210Z,99.99
2017-01-29T03:21:50.361Z,99.99
2017-01-29T03:22:05.054Z,99.99
2017-01-29T03:22:19.722Z,99.99
2017-01-29T03:22:34.512Z,99.99
2017-01-29T03:22:49.306Z,99.99
2017-01-29T03:23:04.116Z,99.99
2017-01-29T03:23:18.879Z,99.99
2017-01-29T03:23:33.668Z,99.99
2017-01-29T03:23:48.366Z,99.99
2017-01-29T03:24:03.149Z,99.99
2017-01-29T03:24:17.988Z,99.99
2017-01-29T03:24:32.682Z,99.99
2017-01-29T03:24:47.546Z,99.99
2017-01-29T03:25:02.193Z,99.99
2017-01-29T03:25:16.839Z,99.99
2017-01-29T03:25:31.505Z,99.99
2017-01-29T03:25:46.145Z,99.99
2017-01-29T03:26:00.996Z,99.99
2017-01-29T03:26:15.806Z,99.99
2017-01-29T03:26:30.597Z,99.99
2017-01-29T03:26:45.608Z,99.99
2017-01-29T03:27:00.330Z,99.99
2017-01-29T03:27:14.947Z,99.99
2017-01-29T03:27:29.682Z,99.99
2017-01-29T03:27:44.401Z,99.99
2017-01-29T03:27:59.001Z,99.99
2017-01-29T03:28:13.678Z,99.99
2017-01-29T03:28:28.413Z,99.99
2017-01-29T03:28:43.080Z,99.99
2017-01-29T03:28:57.885Z,99.99
2017-01-29T03:29:12.557Z,99.99
2017-01-29T03:29:27.372Z,99.99
2017-01-29T03:29:42.131Z,99.99
2017-01-29T03:29:56.832Z,99.99
2017-01-29T03:30:11.609Z,99.99
2017-01-29T03:30:26.305Z,99.99
2017-01-29T03:30:41.023Z,99.99
2017-01-29T03:30:55.856Z,99.99
2017-01-29T03:31:10.417Z,99.99
2017-01-29T03:31:25.033Z,99.99
2017-01-29T03:31:39.786Z,99.99
2017-01-29T03:31:54.645Z,99.99
2017-01-29T03:32:09.322Z,99.99
2017-01-29T03:32:23.863Z,99.99
2017-01-29T03:32:38.668Z,99.99
2017-01-29T03:32:53.342Z,99.99
2017-01-29T03:33:08.208Z,99.99
2017-01-29T03:33:23.057Z,99.99
2017-01-29T03:33:37.927Z,99.99
2017-01-29T03:33:52.492Z,99.99
2017-01-29T03:34:07.351Z,99.99
2017-01-29T03:34:22.085Z,99.99
2017-01-29T03:34:36.830Z,99.99
2017-01-29T03:34:51.635Z,99.99
2017-01-29T03:35:06.306Z,99.99
2017-01-29T03:35:21.086Z,99.99
2017-01-29T03:35:35.871Z,99.99
2017-01-29T03:35:50.700Z,99.99
2017-01-29T03:36:05.303Z,99.99
2017-01-29T03:36:19.975Z,99.99
2017-01-29T03:36:34.741Z,99.99
2017-01-29T03:36:49.799Z,99.99
2017-01-29T03:37:04.493Z,99.99
2017-01-29T03:37:19.119Z,99.99
2017-01-29T03:37:33.833Z,99.99
2017-01-29T03:37:48.569Z,99.99
2017-01-29T03:38:03.366Z,99.99
2017-01-29T03:38:17.972Z,99.99
2017-01-29T03:38:32.804Z,99.99
2017-01-29T03:38:47.649Z,99.99
2017-01-29T03:39:02.375Z,99.99
2017-01-29T03:39:17.096Z,99.99
2017-01-29T03:39:31.694Z,99.99
2017-01-29T03:39:46.255Z,99.99
2017-01-29T03:40:00.977Z,99.99
2017-01-29T03:40:15.792Z,99.99
2017-01-29T03:40:30.490Z,99.99
2017-01-29T03:40:45.245Z,99.99
2017-01-29T03:40:59.864Z,99.99
2017-01-29T03:41:14.559Z,99.99
2017-01-29T03:41:29.186Z,99.99
2017-01-29T03:41:43.985Z,99.99
2017-01-29T03:41:58.771Z,99.99
2017-01-29T03:42:13.515Z,99.99
2017-01-29T03:42:28.288Z,99.99
2017-01-29T03:42:43.186Z,99.99
2017-01-29T03:42:57.909Z,99.99
2017-01-29T03:43:12.781Z,99.99
2017-01-29T03:43:27.508Z,99.99
2017-01-29T03:43:42.257Z,99.99
2017-01-29T03:43:56.966Z,99.99
2017-01-29T03:44:11.715Z,99.99
2017-01-29T03:44:26.575Z,99.99
2017-01-29T03:44:41.650Z,99.99
2017-01-29T03:44:56.199Z,99.99
2017-01-29T03:45:11.038Z,99.99
2017-01-29T03:45:25.866Z,99.99
2017-01-29T03:45:40.616Z,99.99
2017-01-29T03:45:55.474Z,99.99
2017-01-29T03:46:10.204Z,99.99
2017-01-29T03:46:25.049Z,99.99
2017-01-29T03:46:39.829Z,99.99
2017-01-29T03:46:54.624Z,99.99
2017-01-29T03:47:09.379Z,99.99
2017-01-29T03:47:24.089Z,99.99
2017-01-29T03:47:38.763Z,99.99
2017-01-29T03:47:53.511Z,99.99
2017-01-29T03:48:08.482Z,99.99
2017-01-29T03:48:23.239Z,99.99
2017-01-29T03:48:38.079Z,99.99
2017-01-29T03:48:52.890Z,99.99
2017-01-29T03:49:07.638Z,99.99
2017-01-29T03:49:22.388Z,99.99
2017-01-29T03:49:37.196Z,99.99
2017-01-29T03:49:51.811Z,99.99
2017-01-29T03:50:06.393Z,99.99
2017-01-29T03:50:21.106Z,99.99
2017-01-29T03:50:35.757Z,99.99
2017-01-29T03:50:50.679Z,99.99
2017-01-29T03:51:05.513Z,99.99
2017-01-29T03:51:20.267Z,99.99
2017-01-29T03:51:35.000Z,99.99
2017-01-29T03:51:49.711Z,99.99
2017-01-29T03:52:04.980Z,99.99
2017-01-29T03:52:19.544Z,99.99
2017-01-29T03:52:34.142Z,99.99
2017-01-29T03:52:48.806Z,99.99
2017-01-29T03:53:03.413Z,99.99
2017-01-29T03:53:18.050Z,99.99
2017-01-29T03:53:32.666Z,99.99
2017-01-29T03:53:47.350Z,99.99
2017-01-29T03:54:02.218Z,99.99
2017-01-29T03:54:16.856Z,99.99
2017-01-29T03:54:31.659Z,99.99
2017-01-29T03:54:46.516Z,99.99
2017-01-29T03:55:01.233Z,99.99
2017-01-29T03:55:15.936Z,99.99
2017-01-29T03:55:30.551Z,99.99
2017-01-29T03:55:45.220Z,99.99
2017-01-29T03:56:00.138Z,99.99
2017-01-29T03:56:14.905Z,99.99
2017-01-29T03:56:29.720Z,99.99
2017-01-29T03:56:44.274Z,99.99
2017-01-29T03:56:59.151Z,99.99
2017-01-29T03:57:13.859Z,99.99
2017-01-29T03:57:28.619Z,99.99
2017-01-29T03:57:43.368Z,99.99
2017-01-29T03:57:58.061Z,99.99
2017-01-29T03:58:12.543Z,99.99
2017-01-29T03:58:27.419Z,99.99
2017-01-29T03:58:42.202Z,99.99
2017-01-29T03:58:56.808Z,99.99
2017-01-29T03:59:11.482Z,99.99
2017-01-29T03:59:26.435Z,99.99
2017-01-29T03:59:41.199Z,99.99
2017-01-29T03:59:55.881Z,99.99
2017-01-29T04:00:10.515Z,99.99
2017-01-29T04:00:25.267Z,99.99
2017-01-29T04:00:40.025Z,99.99
2017-01-29T04:00:54.717Z,99.99
2017-01-29T04:01:09.428Z,99.99
2017-01-29T04:01:24.129Z,99.99
2017-01-29T04:01:39.005Z,99.99
2017-01-29T04:01:53.728Z,99.99
2017-01-29T04:02:08.493Z,99.99
2017-01-29T04:02:23.355Z,99.99
2017-01-29T04:02:38.060Z,99.99
2017-01-29T04:02:52.881Z,99.99
2017-01-29T04:03:07.607Z,99.99
2017-01-29T04:03:22.361Z,99.99
2017-01-29T04:03:37.176Z,99.99
2017-01-29T04:03:51.965Z,99.99
2017-01-29T04:04:06.720Z,99.99
2017-01-29T04:04:21.548Z,99.99
2017-01-29T04:04:36.199Z,99.99
2017-01-29T04:04:51.020Z,99.99
2017-01-29T04:05:05.702Z,99.99
2017-01-29T04:05:20.437Z,99.99
2017-01-29T04:05:35.177Z,99.99
2017-01-29T04:05:49.879Z,99.99
2017-01-29T04:06:04.485Z,99.99
2017-01-29T04:06:19.127Z,99.99
2017-01-29T04:06:33.852Z,99.99
2017-01-29T04:06:48.605Z,99.99
2017-01-29T04:07:03.649Z,99.99
2017-01-29T04:07:18.537Z,99.6
2017-01-29T04:07:33.132Z,99.5
2017-01-29T04:07:48.009Z,99.5
2017-01-29T04:08:02.796Z,99.4
2017-01-29T04:08:17.600Z,99.55
2017-01-29T04:08:32.265Z,99.74
2017-01-29T04:08:46.918Z,99.5
2017-01-29T04:09:01.646Z,99.6
2017-01-29T04:09:16.391Z,99.55
2017-01-29T04:09:30.976Z,99.74
2017-01-29T04:09:45.706Z,99.84
2017-01-29T04:10:00.501Z,99.65
2017-01-29T04:10:15.138Z,99.6
2017-01-29T04:10:29.955Z,99.79
2017-01-29T04:10:44.705Z,99.3
2017-01-29T04:10:59.403Z,99.21
2017-01-29T04:11:14.094Z,99.26
2017-01-29T04:11:28.944Z,99.21
2017-01-29T04:11:43.552Z,99.3
2017-01-29T04:11:58.403Z,99.4
2017-01-29T04:12:13.349Z,99.45
2017-01-29T04:12:28.212Z,99.35
2017-01-29T04:12:42.981Z,99.5
2017-01-29T04:12:57.611Z,99.45
2017-01-29T04:13:12.378Z,99.07
2017-01-29T04:13:27.285Z,99.16
2017-01-29T04:13:41.991Z,98.97
2017-01-29T04:13:56.745Z,99.26
2017-01-29T04:14:11.265Z,99.16
2017-01-29T04:14:26.004Z,99.45
2017-01-29T04:14:40.680Z,99.35
2017-01-29T04:14:55.493Z,99.21
2017-01-29T04:15:10.259Z,98.82
2017-01-29T04:15:24.970Z,98.73
2017-01-29T04:15:39.758Z,99.26
2017-01-29T04:15:54.658Z,99.55
2017-01-29T04:16:09.470Z,99.16
2017-01-29T04:16:24.166Z,99.16
2017-01-29T04:16:38.724Z,98.87
2017-01-29T04:16:53.442Z,99.74
2017-01-29T04:17:08.284Z,99.07
2017-01-29T04:17:23.015Z,99.65
2017-01-29T04:17:37.763Z,98.97
2017-01-29T04:17:52.481Z,99.07
2017-01-29T04:18:07.166Z,98.97
2017-01-29T04:18:21.904Z,98.78
2017-01-29T04:18:36.686Z,98.97
2017-01-29T04:18:51.328Z,99.16
2017-01-29T04:19:06.026Z,99.26
2017-01-29T04:19:20.746Z,99.07
2017-01-29T04:19:35.385Z,99.26
2017-01-29T04:19:50.183Z,99.16
2017-01-29T04:20:04.687Z,98.87
2017-01-29T04:20:19.384Z,98.78
2017-01-29T04:20:34.100Z,98.97
2017-01-29T04:20:48.941Z,98.87
2017-01-29T04:21:03.701Z,99.07
2017-01-29T04:21:18.328Z,99.26
2017-01-29T04:21:33.141Z,99.07
2017-01-29T04:21:47.864Z,99.45
2017-01-29T04:22:02.398Z,99.07
2017-01-29T04:22:17.504Z,99.26
2017-01-29T04:22:32.185Z,99.16
2017-01-29T04:22:46.941Z,98.97
2017-01-29T04:23:01.687Z,99.55
2017-01-29T04:23:16.441Z,99.16
2017-01-29T04:23:31.155Z,99.16
2017-01-29T04:23:45.834Z,99.16
2017-01-29T04:24:00.345Z,99.16
2017-01-29T04:24:15.023Z,99.26
2017-01-29T04:24:29.931Z,98.97
2017-01-29T04:24:44.720Z,99.07
2017-01-29T04:24:59.504Z,98.87
2017-01-29T04:25:14.318Z,99.07
2017-01-29T04:25:29.050Z,99.35
2017-01-29T04:25:43.813Z,99.07
2017-01-29T04:25:58.590Z,98.97
2017-01-29T04:26:13.359Z,99.07
2017-01-29T04:26:28.037Z,98.97
2017-01-29T04:26:42.694Z,99.07
2017-01-29T04:26:57.446Z,98.78
2017-01-29T04:27:12.294Z,99.07
2017-01-29T04:27:27.046Z,99.07
2017-01-29T04:27:41.816Z,99.07
2017-01-29T04:27:56.423Z,98.87
2017-01-29T04:28:11.082Z,98.97
2017-01-29T04:28:25.797Z,99.07
2017-01-29T04:28:40.469Z,99.26
2017-01-29T04:28:55.216Z,99.16
2017-01-29T04:29:10.001Z,99.16
2017-01-29T04:29:24.758Z,99.07
2017-01-29T04:29:39.515Z,98.97
2017-01-29T04:29:54.238Z,99.16
2017-01-29T04:30:09.029Z,99.26
2017-01-29T04:30:23.899Z,99.26
2017-01-29T04:30:38.589Z,99.16
2017-01-29T04:30:53.191Z,99.16
2017-01-29T04:31:07.982Z,99.07
2017-01-29T04:31:22.808Z,99.16
2017-01-29T04:31:37.585Z,99.16
2017-01-29T04:31:52.306Z,99.07
2017-01-29T04:32:06.892Z,99.07
2017-01-29T04:32:21.609Z,99.07
2017-01-29T04:32:36.431Z,98.97
2017-01-29T04:32:51.247Z,98.97
2017-01-29T04:33:05.968Z,98.97
2017-01-29T04:33:20.572Z,98.97
2017-01-29T04:33:35.211Z,99.07
2017-01-29T04:33:50.079Z,98.97
2017-01-29T04:34:04.925Z,98.97
2017-01-29T04:34:19.739Z,99.07
2017-01-29T04:34:34.456Z,99.35
2017-01-29T04:34:49.123Z,98.68
2017-01-29T04:35:03.767Z,98.97
2017-01-29T04:35:18.514Z,98.97
2017-01-29T04:35:33.220Z,98.97
2017-01-29T04:35:48.006Z,99.07
2017-01-29T04:36:02.737Z,99.16
2017-01-29T04:36:17.465Z,98.97
2017-01-29T04:36:32.040Z,99.07
2017-01-29T04:36:46.849Z,98.78
2017-01-29T04:37:01.596Z,99.07
2017-01-29T04:37:16.559Z,99.07
2017-01-29T04:37:31.364Z,99.16
2017-01-29T04:37:46.169Z,99.16
2017-01-29T04:38:01.039Z,98.87
2017-01-29T04:38:15.709Z,99.07
2017-01-29T04:38:30.456Z,99.16
2017-01-29T04:38:45.354Z,98.87
2017-01-29T04:38:59.979Z,99.35
2017-01-29T04:39:14.676Z,99.16
2017-01-29T04:39:29.356Z,99.07
2017-01-29T04:39:44.163Z,99.07
2017-01-29T04:39:58.928Z,98.97
2017-01-29T04:40:13.694Z,99.16
2017-01-29T04:40:28.417Z,99.16
2017-01-29T04:40:43.192Z,99.07
2017-01-29T04:40:58.025Z,99.26
2017-01-29T04:41:12.609Z,99.16
2017-01-29T04:41:27.253Z,99.16
2017-01-29T04:41:41.981Z,99.16
2017-01-29T04:41:56.796Z,99.07
2017-01-29T04:42:11.608Z,99.26
2017-01-29T04:42:26.424Z,99.07
2017-01-29T04:42:41.227Z,98.97
2017-01-29T04:42:55.894Z,99.07
2017-01-29T04:43:10.630Z,99.07
2017-01-29T04:43:25.600Z,99.16
2017-01-29T04:43:40.391Z,99.07
2017-01-29T04:43:55.037Z,99.16
2017-01-29T04:44:09.814Z,98.97
2017-01-29T04:44:24.420Z,99.07
2017-01-29T04:44:39.179Z,99.07
2017-01-29T04:44:54.069Z,99.26
2017-01-29T04:45:08.869Z,98.97
2017-01-29T04:45:23.537Z,98.97
2017-01-29T04:45:38.188Z,98.87
2017-01-29T04:45:52.960Z,98.97
2017-01-29T04:46:07.755Z,98.87
2017-01-29T04:46:22.530Z,98.97
2017-01-29T04:46:37.303Z,99.07
2017-01-29T04:46:52.014Z,98.97
2017-01-29T04:47:06.852Z,99.07
2017-01-29T04:47:21.707Z,98.68
2017-01-29T04:47:36.485Z,98.68
2017-01-29T04:47:51.266Z,98.58
2017-01-29T04:48:05.870Z,98.78
2017-01-29T04:48:20.619Z,98.58
2017-01-29T04:48:35.373Z,98.68
2017-01-29T04:48:50.239Z,98.68
2017-01-29T04:49:05.120Z,98.39
2017-01-29T04:49:20.000Z,98.39
2017-01-29T04:49:34.747Z,98.49
2017-01-29T04:49:49.629Z,98.58
2017-01-29T04:50:04.306Z,98.39
2017-01-29T04:50:18.998Z,99.35
2017-01-29T04:50:33.652Z,98.68
2017-01-29T04:50:48.410Z,98.58
2017-01-29T04:51:03.122Z,99.07
2017-01-29T04:51:17.783Z,98.58
2017-01-29T04:51:32.544Z,98.87
2017-01-29T04:51:47.406Z,98.87
2017-01-29T04:52:02.252Z,98.97
2017-01-29T04:52:16.898Z,99.16
2017-01-29T04:52:32.151Z,98.58
2017-01-29T04:52:46.884Z,98.97
2017-01-29T04:53:01.680Z,99.07
2017-01-29T04:53:16.489Z,98.97
2017-01-29T04:53:31.068Z,98.97
2017-01-29T04:53:45.842Z,99.07
2017-01-29T04:54:00.622Z,99.07
2017-01-29T04:54:15.335Z,99.26
2017-01-29T04:54:30.119Z,99.07
2017-01-29T04:54:44.902Z,98.87
2017-01-29T04:54:59.626Z,98.97
2017-01-29T04:55:14.279Z,99.07
2017-01-29T04:55:28.969Z,99.26
2017-01-29T04:55:43.708Z,98.87
2017-01-29T04:55:58.543Z,98.97
2017-01-29T04:56:13.138Z,98.97
2017-01-29T04:56:27.866Z,98.97
2017-01-29T04:56:42.726Z,98.97
2017-01-29T04:56:57.529Z,98.87
2017-01-29T04:57:12.303Z,98.68
2017-01-29T04:57:27.068Z,98.78
2017-01-29T04:57:41.742Z,98.68
2017-01-29T04:57:56.420Z,98.68
2017-01-29T04:58:11.112Z,98.68
2017-01-29T04:58:25.831Z,98.54
2017-01-29T04:58:40.536Z,98.58
2017-01-29T04:58:55.287Z,98.78
2017-01-29T04:59:10.194Z,98.68
2017-01-29T04:59:24.887Z,98.68
2017-01-29T04:59:39.466Z,98.68
2017-01-29T04:59:54.183Z,98.68
2017-01-29T05:00:08.951Z,98.49
2017-01-29T05:00:23.589Z,98.68
2017-01-29T05:00:38.322Z,98.68
2017-01-29T05:00:53.107Z,98.78
2017-01-29T05:01:07.871Z,98.78
2017-01-29T05:01:22.797Z,98.49
2017-01-29T05:01:37.575Z,98.68
2017-01-29T05:01:52.280Z,98.39
2017-01-29T05:02:06.880Z,98.78
2017-01-29T05:02:21.703Z,98.68
2017-01-29T05:02:36.507Z,98.97
2017-01-29T05:02:51.151Z,98.68
2017-01-29T05:03:05.850Z,98.68
2017-01-29T05:03:20.633Z,98.97
2017-01-29T05:03:35.431Z,99.16
2017-01-29T05:03:50.255Z,98.97
2017-01-29T05:04:04.836Z,98.97
2017-01-29T05:04:19.457Z,98.97
2017-01-29T05:04:34.185Z,98.87
2017-01-29T05:04:48.885Z,98.87
2017-01-29T05:05:03.675Z,98.87
2017-01-29T05:05:18.328Z,98.68
2017-01-29T05:05:32.997Z,98.78
2017-01-29T05:05:47.709Z,99.07
2017-01-29T05:06:02.385Z,99.16
2017-01-29T05:06:17.040Z,99.16
2017-01-29T05:06:31.860Z,98.97
2017-01-29T05:06:46.703Z,99.07
2017-01-29T05:07:01.400Z,99.07
2017-01-29T05:07:15.981Z,98.97
2017-01-29T05:07:30.960Z,98.68
2017-01-29T05:07:45.717Z,98.97
2017-01-29T05:08:00.372Z,98.97
2017-01-29T05:08:15.256Z,98.97
2017-01-29T05:08:29.876Z,98.87
2017-01-29T05:08:44.611Z,98.68
2017-01-29T05:08:59.265Z,98.78
2017-01-29T05:09:13.910Z,98.97
2017-01-29T05:09:28.502Z,98.68
2017-01-29T05:09:43.294Z,98.78
2017-01-29T05:09:58.129Z,98.97
2017-01-29T05:10:13.105Z,98.87
2017-01-29T05:10:27.867Z,98.97
2017-01-29T05:10:42.665Z,98.87
2017-01-29T05:10:57.383Z,99.16
2017-01-29T05:11:12.235Z,98.97
2017-01-29T05:11:26.952Z,98.87
2017-01-29T05:11:41.654Z,98.97
2017-01-29T05:11:56.400Z,98.97
2017-01-29T05:12:11.023Z,98.97
2017-01-29T05:12:25.565Z,98.97
2017-01-29T05:12:40.377Z,98.97
2017-01-29T05:12:55.092Z,98.68
2017-01-29T05:13:09.664Z,98.97
2017-01-29T05:13:24.395Z,98.58